createdAt,value
2022-11-19T00:01:14.854Z,27.08
2022-11-19T00:03:20.093Z,27.92
2022-11-19T00:05:21.863Z,29.25
2022-11-19T00:07:24.061Z,26.23
2022-11-19T00:09:26.211Z,28.85
2022-11-19T00:11:47.123Z,32.53
2022-11-19T00:13:50.172Z,31.42
2022-11-19T00:15:52.536Z,26.88
2022-11-19T00:17:54.371Z,21.08
2022-11-19T00:19:56.525Z,28.48
2022-11-19T00:21:58.473Z,28.02
2022-11-19T00:24:00.352Z,27.13
2022-11-19T00:26:13.780Z,23.30
2022-11-19T00:28:15.545Z,25.83
2022-11-19T00:30:40.806Z,30.92
2022-11-19T00:32:40.211Z,28.23
2022-11-19T00:34:42.278Z,24.40
2022-11-19T00:36:44.118Z,26.45
2022-11-19T00:38:46.412Z,29.45
2022-11-19T00:40:48.390Z,30.93
2022-11-19T00:43:08.855Z,27.07
2022-11-19T00:45:11.023Z,28.05
2022-11-19T00:47:12.823Z,24.98
2022-11-19T00:49:14.569Z,26.83
2022-11-19T00:51:18.172Z,25.58
2022-11-19T00:53:19.958Z,29.10
2022-11-19T00:55:21.747Z,27.90
2022-11-19T00:57:23.883Z,28.67
2022-11-19T00:59:25.944Z,30.17
2022-11-19T01:01:27.848Z,28.63
2022-11-19T01:03:30.190Z,28.88
2022-11-19T01:05:32.172Z,28.23
2022-11-19T01:07:34.053Z,27.30
2022-11-19T01:09:36.224Z,28.60
2022-11-19T01:11:39.553Z,31.38
2022-11-19T01:13:41.799Z,24.55
2022-11-19T01:15:47.131Z,26.65
2022-11-19T01:17:49.019Z,27.42
2022-11-19T01:19:50.787Z,23.98
2022-11-19T01:21:52.991Z,28.75
2022-11-19T01:23:55.123Z,28.48
2022-11-19T01:25:57.028Z,28.98
2022-11-19T01:27:59.235Z,27.10
2022-11-19T01:30:00.996Z,25.50
2022-11-19T01:32:02.780Z,24.67
2022-11-19T01:34:05.110Z,29.02
2022-11-19T01:36:11.400Z,29.17
2022-11-19T01:38:13.166Z,24.95
2022-11-19T01:40:15.890Z,31.92
2022-11-19T01:42:49.741Z,22.98
2022-11-19T01:45:04.073Z,37.33
2022-11-19T01:47:05.858Z,35.70
2022-11-19T01:49:14.811Z,32.05
2022-11-19T01:51:30.199Z,32.03
2022-11-19T01:53:35.358Z,26.52
2022-11-19T01:55:38.510Z,27.80
2022-11-19T01:57:41.121Z,29.40
2022-11-19T01:59:46.694Z,28.15
2022-11-19T02:01:48.872Z,27.95
2022-11-19T02:03:52.440Z,28.75
2022-11-19T02:05:54.604Z,24.98
2022-11-19T02:07:58.338Z,27.08
2022-11-19T02:10:02.964Z,28.02
2022-11-19T02:12:19.067Z,25.17
2022-11-19T02:14:47.300Z,24.10
2022-11-19T02:17:23.387Z,28.30
2022-11-19T02:19:45.146Z,25.85
2022-11-19T02:22:29.754Z,24.85
2022-11-19T02:25:01.347Z,26.00
2022-11-19T02:27:32.680Z,26.67
2022-11-19T02:30:02.404Z,26.80
2022-11-19T02:32:15.091Z,28.33
2022-11-19T02:34:22.530Z,29.88
2022-11-19T02:36:32.439Z,30.00
2022-11-19T02:38:41.768Z,26.40
2022-11-19T02:41:29.453Z,27.35
2022-11-19T02:43:41.758Z,28.23
2022-11-19T02:45:49.274Z,30.98
2022-11-19T02:47:55.115Z,26.23
2022-11-19T02:50:03.183Z,25.83
2022-11-19T02:52:05.559Z,26.33
2022-11-19T02:54:08.465Z,25.17
2022-11-19T02:56:17.902Z,25.73
2022-11-19T02:58:40.655Z,23.02
2022-11-19T03:01:08.492Z,22.98
2022-11-19T03:03:39.557Z,25.73
2022-11-19T03:05:47.251Z,21.95
2022-11-19T03:07:49.205Z,20.00
2022-11-19T03:10:00.530Z,25.25
2022-11-19T03:12:20.980Z,25.05
2022-11-19T03:14:48.582Z,21.50
2022-11-19T03:17:08.256Z,25.55
2022-11-19T03:19:27.758Z,24.55
2022-11-19T03:21:38.015Z,25.13
2022-11-19T03:24:02.752Z,26.75
2022-11-19T03:26:13.399Z,25.65
2022-11-19T03:28:21.602Z,27.67
2022-11-19T03:30:23.684Z,25.98
2022-11-19T03:32:30.994Z,26.58
2022-11-19T03:34:36.415Z,25.90
2022-11-19T03:36:41.055Z,27.92
2022-11-19T03:38:47.082Z,27.13
2022-11-19T03:40:50.659Z,29.23
2022-11-19T03:42:54.758Z,28.25
2022-11-19T03:45:10.313Z,28.98
2022-11-19T03:47:17.194Z,30.27
2022-11-19T03:49:22.629Z,28.08
2022-11-19T03:51:48.661Z,32.03
2022-11-19T03:53:50.825Z,26.40
2022-11-19T03:56:19.797Z,31.98
2022-11-19T03:58:25.073Z,30.83
2022-11-19T04:00:26.817Z,26.52
2022-11-19T04:02:28.666Z,31.10
2022-11-19T04:04:37.412Z,31.00
2022-11-19T04:06:39.175Z,33.55
2022-11-19T04:08:40.912Z,30.70
2022-11-19T04:10:43.054Z,33.00
2022-11-19T04:12:44.829Z,35.95
2022-11-19T04:14:47.437Z,31.77
2022-11-19T04:16:49.843Z,34.40
2022-11-19T04:18:51.582Z,30.48
2022-11-19T04:20:53.413Z,31.20
2022-11-19T04:22:55.740Z,33.17
2022-11-19T04:24:57.571Z,34.00
2022-11-19T04:26:59.349Z,30.27
2022-11-19T04:29:01.582Z,34.58
2022-11-19T04:31:03.434Z,33.60
2022-11-19T04:33:05.187Z,32.20
2022-11-19T04:35:08.103Z,31.67
2022-11-19T04:37:09.913Z,32.40
2022-11-19T04:39:12.547Z,33.10
2022-11-19T04:41:14.854Z,35.70
2022-11-19T04:43:16.633Z,32.10
2022-11-19T04:45:18.413Z,31.90
2022-11-19T04:47:20.574Z,37.20
2022-11-19T04:49:22.681Z,31.60
2022-11-19T04:51:24.507Z,37.53
2022-11-19T04:53:26.858Z,35.30
2022-11-19T04:55:28.862Z,33.67
2022-11-19T04:57:30.692Z,35.87
2022-11-19T04:59:32.836Z,34.90
2022-11-19T05:01:34.716Z,33.80
2022-11-19T05:03:36.486Z,36.87
2022-11-19T05:05:38.593Z,38.17
2022-11-19T05:07:40.466Z,34.03
2022-11-19T05:09:42.251Z,32.83
2022-11-19T05:11:44.346Z,35.92
2022-11-19T05:13:46.182Z,35.97
2022-11-19T05:15:48.012Z,33.90
2022-11-19T05:17:50.464Z,36.38
2022-11-19T05:19:52.233Z,35.25
2022-11-19T05:21:54.009Z,33.58
2022-11-19T05:23:56.138Z,36.53
2022-11-19T05:25:58.110Z,32.72
2022-11-19T05:27:59.875Z,35.33
2022-11-19T05:30:02.186Z,37.50
2022-11-19T05:32:04.180Z,33.63
2022-11-19T05:34:06.027Z,37.23
2022-11-19T05:36:08.358Z,38.45
2022-11-19T05:38:10.148Z,37.28
2022-11-19T05:40:12.522Z,39.20
2022-11-19T05:42:14.658Z,35.42
2022-11-19T05:44:17.028Z,40.63
2022-11-19T05:46:19.131Z,41.58
2022-11-19T05:48:20.911Z,44.30
2022-11-19T05:50:22.842Z,42.42
2022-11-19T05:52:25.383Z,43.92
2022-11-19T05:54:27.447Z,43.08
2022-11-19T05:56:29.341Z,45.85
2022-11-19T05:58:31.445Z,44.17
2022-11-19T06:00:33.412Z,43.25
2022-11-19T06:02:35.226Z,48.13
2022-11-19T06:04:37.471Z,51.90
2022-11-19T06:06:39.649Z,47.25
2022-11-19T06:08:41.627Z,52.10
2022-11-19T06:10:43.843Z,49.83
2022-11-19T06:12:46.306Z,49.95
2022-11-19T06:14:48.178Z,48.08
2022-11-19T06:16:51.844Z,50.58
2022-11-19T06:18:53.843Z,47.78
2022-11-19T06:20:55.594Z,47.78
2022-11-19T06:22:58.151Z,51.22
2022-11-19T06:24:59.933Z,50.92
2022-11-19T06:27:01.719Z,49.33
2022-11-19T06:29:03.991Z,49.70
2022-11-19T06:31:06.225Z,50.53
2022-11-19T06:33:08.026Z,51.58
2022-11-19T06:35:10.566Z,49.60
2022-11-19T06:37:12.391Z,51.20
2022-11-19T06:39:14.225Z,50.97
2022-11-19T06:41:17.050Z,39.15
2022-11-19T06:43:19.035Z,48.55
2022-11-19T06:45:20.811Z,47.90
2022-11-19T06:47:23.052Z,50.25
2022-11-19T06:49:25.141Z,46.72
2022-11-19T06:51:27.158Z,47.97
2022-11-19T06:53:29.753Z,36.13
2022-11-19T06:55:31.556Z,34.42
2022-11-19T06:57:33.348Z,53.05
2022-11-19T06:59:35.461Z,46.50
2022-11-19T07:01:37.271Z,48.42
2022-11-19T07:03:39.068Z,45.75
2022-11-19T07:05:41.614Z,50.05
2022-11-19T07:07:43.485Z,49.78
2022-11-19T07:09:45.297Z,34.58
2022-11-19T07:11:47.409Z,48.45
2022-11-19T07:13:59.759Z,51.85
2022-11-19T07:16:03.187Z,40.28
2022-11-19T07:18:05.367Z,47.45
2022-11-19T07:20:08.146Z,48.33
2022-11-19T07:22:10.215Z,48.83
2022-11-19T07:24:16.445Z,50.38
2022-11-19T07:26:18.426Z,48.72
2022-11-19T07:28:20.220Z,48.47
2022-11-19T07:30:22.333Z,39.70
2022-11-19T07:32:24.163Z,48.00
2022-11-19T07:34:25.913Z,47.28
2022-11-19T07:36:28.118Z,50.58
2022-11-19T07:38:35.683Z,52.42
2022-11-19T07:40:38.659Z,45.80
2022-11-19T07:42:49.559Z,52.40
2022-11-19T07:44:54.829Z,46.70
2022-11-19T07:46:57.162Z,49.67
2022-11-19T07:48:59.595Z,44.35
2022-11-19T07:51:01.368Z,48.75
2022-11-19T07:53:03.203Z,45.05
2022-11-19T07:55:06.130Z,51.30
2022-11-19T07:57:08.099Z,44.10
2022-11-19T07:59:10.235Z,46.47
2022-11-19T08:01:17.614Z,44.42
2022-11-19T08:03:19.767Z,45.75
2022-11-19T08:05:21.547Z,50.40
2022-11-19T08:07:23.786Z,45.15
2022-11-19T08:09:25.562Z,45.25
2022-11-19T08:11:27.500Z,45.35
2022-11-19T08:13:29.624Z,34.15
2022-11-19T08:15:33.284Z,43.70
2022-11-19T08:17:53.896Z,42.92
2022-11-19T08:19:56.048Z,39.40
2022-11-19T08:21:57.906Z,40.60
2022-11-19T08:23:59.716Z,42.80
2022-11-19T08:26:02.089Z,40.55
2022-11-19T08:28:05.142Z,41.67
2022-11-19T08:30:07.607Z,41.05
2022-11-19T08:32:09.788Z,37.53
2022-11-19T08:34:12.068Z,34.70
2022-11-19T08:36:14.231Z,37.60
2022-11-19T08:38:16.045Z,35.55
2022-11-19T08:40:19.069Z,37.40
2022-11-19T08:42:39.331Z,35.63
2022-11-19T08:44:41.144Z,32.28
2022-11-19T08:46:43.646Z,34.22
2022-11-19T08:48:45.934Z,35.88
2022-11-19T08:50:47.757Z,38.72
2022-11-19T08:52:58.279Z,35.72
2022-11-19T08:55:00.025Z,34.20
2022-11-19T08:57:02.091Z,34.42
2022-11-19T08:59:04.236Z,37.78
2022-11-19T09:01:14.036Z,37.08
2022-11-19T09:03:16.186Z,33.03
2022-11-19T09:05:18.338Z,34.90
2022-11-19T09:07:20.218Z,33.90
2022-11-19T09:09:22.028Z,31.98
2022-11-19T09:11:24.354Z,28.65
2022-11-19T09:13:26.273Z,33.22
2022-11-19T09:15:28.323Z,42.15
2022-11-19T09:17:31.335Z,39.75
2022-11-19T09:19:33.114Z,37.35
2022-11-19T09:21:34.869Z,32.17
2022-11-19T09:23:37.486Z,35.58
2022-11-19T09:25:39.264Z,38.22
2022-11-19T09:27:41.113Z,35.83
2022-11-19T09:29:43.270Z,36.83
2022-11-19T09:31:45.024Z,32.25
2022-11-19T09:33:49.793Z,36.58
2022-11-19T09:35:51.934Z,34.38
2022-11-19T09:37:53.673Z,37.75
2022-11-19T09:39:55.450Z,36.83
2022-11-19T09:42:20.030Z,32.97
2022-11-19T09:44:32.081Z,33.17
2022-11-19T09:46:33.825Z,32.10
2022-11-19T09:48:38.264Z,33.42
2022-11-19T09:51:00.273Z,29.75
2022-11-19T09:53:09.400Z,28.55
2022-11-19T09:55:29.512Z,30.92
2022-11-19T09:57:46.930Z,30.02
2022-11-19T09:59:51.957Z,26.05
2022-11-19T10:01:54.995Z,27.73
2022-11-19T10:03:56.780Z,32.88
2022-11-19T10:06:07.774Z,25.95
2022-11-19T10:08:49.289Z,30.48
2022-11-19T10:11:17.339Z,25.40
2022-11-19T10:13:28.484Z,28.63
2022-11-19T10:15:38.149Z,26.00
2022-11-19T10:18:05.901Z,30.50
2022-11-19T10:20:33.015Z,25.55
2022-11-19T10:22:43.017Z,29.17
2022-11-19T10:24:55.380Z,30.30
2022-11-19T10:27:04.351Z,25.35
2022-11-19T10:29:20.058Z,28.95
2022-11-19T10:33:29.704Z,24.88
2022-11-19T10:35:47.918Z,23.45
2022-11-19T10:37:59.700Z,20.13
2022-11-19T10:40:22.127Z,16.58
2022-11-19T10:42:38.608Z,20.95
2022-11-19T10:44:46.599Z,22.48
2022-11-19T10:46:49.533Z,23.20
2022-11-19T10:48:57.957Z,24.38
2022-11-19T10:51:00.390Z,24.35
2022-11-19T10:53:27.255Z,36.03
2022-11-19T10:55:35.877Z,23.13
2022-11-19T10:57:37.755Z,24.80
2022-11-19T10:59:41.070Z,22.90
2022-11-19T11:01:45.695Z,24.65
2022-11-19T11:04:00.924Z,25.52
2022-11-19T11:06:06.564Z,24.52
2022-11-19T11:08:11.870Z,22.23
2022-11-19T11:10:27.600Z,23.83
2022-11-19T11:12:47.937Z,26.20
2022-11-19T11:14:53.119Z,23.35
2022-11-19T11:16:55.079Z,21.85
2022-11-19T11:18:58.317Z,25.63
2022-11-19T11:21:00.814Z,27.23
2022-11-19T11:23:12.326Z,32.08
2022-11-19T11:25:27.019Z,31.58
2022-11-19T11:27:33.618Z,31.80
2022-11-19T11:29:35.426Z,31.60
2022-11-19T11:31:38.706Z,33.00
2022-11-19T11:33:55.879Z,71.85
2022-11-19T11:36:02.099Z,29.58
2022-11-19T11:38:05.213Z,27.05
2022-11-19T11:40:18.462Z,27.20
2022-11-19T11:42:20.999Z,23.08
2022-11-19T11:44:25.811Z,20.48
2022-11-19T11:46:55.834Z,19.10
2022-11-19T11:49:04.712Z,44.92
2022-11-19T11:51:32.394Z,21.33
2022-11-19T11:53:34.694Z,31.20
2022-11-19T11:55:38.574Z,22.02
2022-11-19T11:57:57.401Z,24.95
2022-11-19T12:00:01.067Z,23.48
2022-11-19T12:02:05.748Z,24.92
2022-11-19T12:04:12.926Z,25.05
2022-11-19T12:06:20.180Z,24.65
2022-11-19T12:08:37.319Z,25.90
2022-11-19T12:10:50.185Z,24.20
2022-11-19T12:15:21.400Z,21.77
2022-11-19T12:17:26.266Z,27.77
2022-11-19T12:19:44.646Z,27.02
2022-11-19T12:22:01.962Z,24.38
2022-11-19T12:24:27.368Z,24.27
2022-11-19T12:26:50.631Z,21.70
2022-11-19T12:29:16.009Z,25.00
2022-11-19T12:31:40.111Z,23.85
2022-11-19T12:33:50.843Z,21.42
2022-11-19T12:36:14.250Z,21.48
2022-11-19T12:38:49.617Z,22.60
2022-11-19T12:41:12.150Z,24.48
2022-11-19T12:43:20.348Z,24.50
2022-11-19T12:45:36.344Z,25.95
2022-11-19T12:47:59.674Z,24.85
2022-11-19T12:50:18.403Z,25.33
2022-11-19T12:52:46.323Z,24.60
2022-11-19T12:55:21.867Z,24.15
2022-11-19T12:57:56.593Z,30.60
2022-11-19T13:00:22.011Z,24.00
2022-11-19T13:02:33.405Z,28.35
2022-11-19T13:04:42.003Z,26.75
2022-11-19T13:06:53.644Z,25.05
2022-11-19T13:09:00.658Z,27.52
2022-11-19T13:11:20.227Z,29.38
2022-11-19T13:13:28.119Z,30.95
2022-11-19T13:15:55.568Z,58.40
2022-11-19T13:18:01.730Z,33.42
2022-11-19T13:20:24.817Z,45.75
2022-11-19T13:22:32.758Z,36.60
2022-11-19T13:24:50.125Z,26.08
2022-11-19T13:26:52.410Z,22.60
2022-11-19T13:29:06.858Z,18.85
2022-11-19T13:31:28.832Z,25.75
2022-11-19T13:33:52.498Z,24.80
2022-11-19T13:36:06.070Z,21.13
2022-11-19T13:40:29.672Z,26.02
2022-11-19T13:43:04.178Z,25.75
2022-11-19T13:45:16.317Z,25.50
2022-11-19T13:47:26.950Z,21.85
2022-11-19T13:49:38.736Z,25.15
2022-11-19T13:51:45.630Z,22.92
2022-11-19T13:53:48.281Z,22.00
2022-11-19T13:55:56.540Z,26.00
2022-11-19T13:58:08.303Z,23.30
2022-11-19T14:00:25.658Z,27.58
2022-11-19T14:02:55.195Z,25.27
2022-11-19T14:05:10.983Z,26.23
2022-11-19T14:07:31.014Z,23.90
2022-11-19T14:09:55.421Z,27.75
2022-11-19T14:12:31.972Z,24.70
2022-11-19T14:15:16.444Z,26.35
2022-11-19T14:20:17.862Z,28.35
2022-11-19T14:23:00.265Z,24.40
2022-11-19T14:25:21.029Z,25.98
2022-11-19T14:27:23.839Z,25.45
2022-11-19T14:29:25.588Z,26.00
2022-11-19T14:31:27.732Z,28.02
2022-11-19T14:33:47.804Z,25.13
2022-11-19T14:35:51.364Z,26.70
2022-11-19T14:37:56.785Z,33.10
2022-11-19T14:40:07.630Z,36.03
2022-11-19T14:42:18.723Z,27.65
2022-11-19T14:44:26.650Z,26.70
2022-11-19T14:46:28.802Z,26.60
2022-11-19T14:48:34.027Z,28.90
2022-11-19T14:50:36.336Z,26.23
2022-11-19T14:52:51.162Z,28.67
2022-11-19T14:55:03.816Z,25.40
2022-11-19T14:57:25.575Z,22.50
2022-11-19T14:59:31.311Z,24.23
2022-11-19T15:01:33.899Z,26.60
2022-11-19T15:05:42.327Z,26.10
2022-11-19T15:07:56.248Z,25.70
2022-11-19T15:10:05.004Z,27.35
2022-11-19T15:12:06.804Z,28.30
2022-11-19T15:14:39.661Z,29.48
2022-11-19T15:16:48.562Z,27.35
2022-11-19T15:19:02.267Z,28.75
2022-11-19T15:21:32.455Z,24.70
2022-11-19T15:24:05.063Z,30.45
2022-11-19T15:26:22.025Z,28.23
2022-11-19T15:28:46.028Z,25.45
2022-11-19T15:31:14.797Z,41.70
2022-11-19T15:33:35.449Z,32.35
2022-11-19T15:36:11.361Z,30.27
2022-11-19T15:38:18.700Z,26.90
2022-11-19T15:40:30.714Z,32.13
2022-11-19T15:42:46.303Z,25.60
2022-11-19T15:44:59.111Z,26.30
2022-11-19T15:47:05.423Z,30.33
2022-11-19T15:49:14.280Z,40.33
2022-11-19T15:51:19.314Z,32.00
2022-11-19T15:53:23.230Z,30.08
2022-11-19T15:55:28.760Z,31.52
2022-11-19T15:57:31.158Z,33.10
2022-11-19T15:59:36.233Z,33.20
2022-11-19T16:01:38.252Z,32.53
2022-11-19T16:03:41.224Z,36.25
2022-11-19T16:05:50.243Z,34.80
2022-11-19T16:07:53.351Z,43.45
2022-11-19T16:09:56.130Z,47.75
2022-11-19T16:12:16.727Z,58.75
2022-11-19T16:14:45.140Z,75.78
2022-11-19T16:17:10.647Z,73.10
2022-11-19T16:19:17.140Z,52.40
2022-11-19T16:21:27.346Z,42.13
2022-11-19T16:23:30.418Z,31.77
2022-11-19T16:25:37.138Z,42.45
2022-11-19T16:27:45.112Z,39.42
2022-11-19T16:29:47.345Z,37.88
2022-11-19T16:31:50.462Z,28.60
2022-11-19T16:33:55.397Z,40.65
2022-11-19T16:36:18.577Z,36.08
2022-11-19T16:38:28.078Z,43.33
2022-11-19T16:40:52.747Z,50.22
2022-11-19T16:42:59.286Z,34.70
2022-11-19T16:45:28.681Z,40.17
2022-11-19T16:47:36.430Z,33.00
2022-11-19T16:49:55.777Z,41.83
2022-11-19T16:51:58.393Z,35.33
2022-11-19T16:54:01.829Z,34.38
2022-11-19T16:56:10.792Z,37.67
2022-11-19T16:58:18.462Z,38.00
2022-11-19T17:00:23.744Z,32.42
2022-11-19T17:02:35.797Z,33.92
2022-11-19T17:04:37.762Z,35.60
2022-11-19T17:06:42.840Z,33.97
2022-11-19T17:08:55.839Z,40.55
2022-11-19T17:11:40.790Z,41.33
2022-11-19T17:13:42.934Z,34.45
2022-11-19T17:15:48.691Z,38.42
2022-11-19T17:17:51.746Z,38.70
2022-11-19T17:19:54.081Z,43.47
2022-11-19T17:22:01.645Z,35.73
2022-11-19T17:24:03.645Z,42.90
2022-11-19T17:26:08.050Z,51.30
2022-11-19T17:28:20.104Z,49.45
2022-11-19T17:30:25.918Z,44.35
2022-11-19T17:32:43.937Z,38.95
2022-11-19T17:34:49.325Z,42.53
2022-11-19T17:36:51.096Z,37.70
2022-11-19T17:38:54.062Z,39.17
2022-11-19T17:40:58.840Z,42.83
2022-11-19T17:43:19.306Z,44.97
2022-11-19T17:45:21.411Z,45.38
2022-11-19T17:47:24.235Z,42.65
2022-11-19T17:49:26.270Z,37.95
2022-11-19T17:51:28.410Z,38.78
2022-11-19T17:53:30.356Z,39.55
2022-11-19T17:55:32.185Z,40.87
2022-11-19T17:57:41.153Z,41.58
2022-11-19T17:59:44.339Z,46.80
2022-11-19T18:01:46.174Z,33.67
2022-11-19T18:03:48.676Z,40.60
2022-11-19T18:05:50.995Z,46.95
2022-11-19T18:07:53.487Z,39.03
2022-11-19T18:09:55.589Z,37.42
2022-11-19T18:11:57.646Z,34.63
2022-11-19T18:14:09.890Z,40.05
2022-11-19T18:16:15.034Z,37.17
2022-11-19T18:18:16.998Z,39.95
2022-11-19T18:20:18.835Z,35.07
2022-11-19T18:22:21.230Z,37.53
2022-11-19T18:24:23.500Z,39.10
2022-11-19T18:26:25.331Z,29.35
2022-11-19T18:28:27.441Z,41.65
2022-11-19T18:30:29.262Z,37.92
2022-11-19T18:32:31.125Z,35.63
2022-11-19T18:34:33.351Z,30.67
2022-11-19T18:36:35.322Z,36.30
2022-11-19T18:38:37.106Z,39.00
2022-11-19T18:40:39.304Z,37.67
2022-11-19T18:43:04.267Z,40.42
2022-11-19T18:45:06.731Z,33.03
2022-11-19T18:51:14.154Z,38.50
2022-11-19T18:53:16.572Z,38.97
2022-11-19T18:55:18.545Z,37.00
2022-11-19T18:57:20.358Z,35.50
2022-11-19T18:59:23.127Z,33.08
2022-11-19T19:01:25.380Z,39.75
2022-11-19T19:03:27.214Z,42.00
2022-11-19T19:05:29.384Z,43.33
2022-11-19T19:07:31.938Z,42.38
2022-11-19T19:09:33.731Z,41.53
2022-11-19T19:11:54.672Z,42.47
2022-11-19T19:13:56.559Z,43.85
2022-11-19T19:16:01.003Z,41.08
2022-11-19T19:18:07.611Z,43.63
2022-11-19T19:20:10.620Z,39.47
2022-11-19T19:22:12.417Z,42.53
2022-11-19T19:24:14.641Z,48.55
2022-11-19T19:26:18.175Z,42.78
2022-11-19T19:28:20.026Z,41.47
2022-11-19T19:30:22.232Z,37.88
2022-11-19T19:32:24.366Z,39.85
2022-11-19T19:34:26.462Z,38.85
2022-11-19T19:36:28.731Z,42.38
2022-11-19T19:38:30.818Z,39.80
2022-11-19T19:40:32.603Z,43.75
2022-11-19T19:42:39.854Z,40.83
2022-11-19T19:44:43.142Z,53.50
2022-11-19T19:46:47.982Z,46.30
2022-11-19T19:48:52.521Z,39.75
2022-11-19T19:50:54.494Z,40.33
2022-11-19T19:52:59.606Z,42.00
2022-11-19T19:55:02.137Z,40.08
2022-11-19T19:57:04.125Z,42.28
2022-11-19T19:59:06.041Z,42.93
2022-11-19T20:01:17.720Z,34.60
2022-11-19T20:03:20.263Z,40.03
2022-11-19T20:05:22.054Z,39.15
2022-11-19T20:07:24.275Z,45.35
2022-11-19T20:09:26.506Z,39.28
2022-11-19T20:11:29.284Z,43.13
2022-11-19T20:13:32.263Z,43.20
2022-11-19T20:15:34.687Z,38.50
2022-11-19T20:17:36.576Z,43.88
2022-11-19T20:19:38.758Z,40.00
2022-11-19T20:21:41.198Z,43.30
2022-11-19T20:23:43.454Z,44.65
2022-11-19T20:25:45.744Z,43.75
2022-11-19T20:27:47.587Z,39.77
2022-11-19T20:29:49.616Z,41.00
2022-11-19T20:31:51.831Z,40.80
2022-11-19T20:33:57.391Z,44.88
2022-11-19T20:35:59.331Z,37.58
2022-11-19T20:38:03.660Z,30.55
2022-11-19T20:40:06.351Z,37.80
2022-11-19T20:42:26.950Z,48.13
2022-11-19T20:44:29.384Z,40.50
2022-11-19T20:46:31.516Z,44.67
2022-11-19T20:48:33.382Z,45.95
2022-11-19T20:50:35.630Z,48.10
2022-11-19T20:52:37.491Z,45.13
2022-11-19T20:54:39.374Z,44.53
2022-11-19T20:56:42.337Z,59.65
2022-11-19T20:58:44.212Z,50.65
2022-11-19T21:00:45.994Z,32.20
2022-11-19T21:02:48.118Z,51.78
2022-11-19T21:04:50.141Z,52.47
2022-11-19T21:06:53.861Z,55.97
2022-11-19T21:08:56.522Z,54.05
2022-11-19T21:11:00.673Z,50.78
2022-11-19T21:13:03.910Z,59.38
2022-11-19T21:15:06.774Z,56.13
2022-11-19T21:17:08.632Z,60.38
2022-11-19T21:19:11.250Z,55.42
2022-11-19T21:21:15.257Z,61.55
2022-11-19T21:23:17.706Z,52.70
2022-11-19T21:25:19.501Z,58.03
2022-11-19T21:27:21.682Z,58.92
2022-11-19T21:29:23.744Z,58.83
2022-11-19T21:31:41.519Z,53.90
2022-11-19T21:33:43.790Z,58.35
2022-11-19T21:35:45.621Z,57.80
2022-11-19T21:37:47.471Z,60.47
2022-11-19T21:39:49.832Z,61.28
2022-11-19T21:41:51.668Z,63.28
2022-11-19T21:43:53.461Z,83.28
2022-11-19T21:45:55.721Z,58.50
2022-11-19T21:47:57.516Z,49.97
2022-11-19T21:50:00.814Z,66.45
2022-11-19T21:52:03.206Z,62.70
2022-11-19T21:54:05.119Z,64.20
2022-11-19T21:56:07.663Z,63.47
2022-11-19T21:58:12.376Z,63.10
2022-11-19T22:00:14.603Z,59.58
2022-11-19T22:02:16.390Z,66.03
2022-11-19T22:04:18.843Z,59.90
2022-11-19T22:06:20.617Z,56.55
2022-11-19T22:08:22.451Z,59.67
2022-11-19T22:10:24.599Z,45.70
2022-11-19T22:12:26.566Z,54.78
2022-11-19T22:14:28.445Z,53.47
2022-11-19T22:16:32.630Z,64.93
2022-11-19T22:18:34.424Z,60.33
2022-11-19T22:20:36.725Z,54.10
2022-11-19T22:22:45.038Z,63.88
2022-11-19T22:24:46.991Z,57.80
2022-11-19T22:26:48.840Z,54.53
2022-11-19T22:28:51.322Z,56.45
2022-11-19T22:30:54.110Z,67.15
2022-11-19T22:32:55.905Z,56.80
2022-11-19T22:34:58.294Z,57.47
2022-11-19T22:37:05.835Z,60.80
2022-11-19T22:39:07.823Z,59.53
2022-11-19T22:41:12.887Z,59.72
2022-11-19T22:43:16.997Z,56.75
2022-11-19T22:45:20.830Z,57.55
2022-11-19T22:47:23.190Z,60.47
2022-11-19T22:49:26.534Z,59.87
2022-11-19T22:51:28.340Z,58.38
2022-11-19T22:53:30.486Z,60.00
2022-11-19T22:55:34.799Z,62.10
2022-11-19T22:57:36.598Z,62.90
2022-11-19T22:59:38.777Z,62.08
2022-11-19T23:01:40.577Z,63.65
2022-11-19T23:03:42.525Z,65.80
2022-11-19T23:05:52.643Z,67.72
2022-11-19T23:07:54.593Z,64.68
2022-11-19T23:09:56.708Z,66.65
2022-11-19T23:12:16.858Z,60.30
2022-11-19T23:14:19.443Z,60.80
2022-11-19T23:16:21.224Z,70.05
2022-11-19T23:18:23.032Z,65.00
2022-11-19T23:20:25.180Z,64.78
2022-11-19T23:22:26.955Z,64.28
2022-11-19T23:24:28.753Z,62.83
2022-11-19T23:26:32.506Z,69.80
2022-11-19T23:28:36.003Z,68.22
2022-11-19T23:30:37.789Z,69.20
2022-11-19T23:32:41.077Z,64.93
2022-11-19T23:36:44.553Z,67.15
2022-11-19T23:38:46.958Z,67.15
2022-11-19T23:40:57.452Z,67.13
2022-11-19T23:42:59.283Z,64.82
2022-11-19T23:45:01.548Z,67.50
2022-11-19T23:47:04.546Z,65.15
2022-11-19T23:49:06.455Z,61.97
2022-11-19T23:51:16.779Z,66.13
2022-11-19T23:53:18.588Z,70.05
2022-11-19T23:55:20.422Z,68.70
2022-11-19T23:57:22.590Z,69.50
2022-11-19T23:59:25.877Z,67.50
